< < Back
Terminal Aerodrome Forecast


Current Version              Previous Versions:   1  2  3  4  5  6  7  8  9  

Terminal Aerodrome Forecast

305
FTUS42 KJAX 242320
TAFJAX
TAF
KJAX 242320Z 2500/2524 12012KT P6SM SCT060
     FM250100 VRB03KT P6SM FEW250
     FM251900 12008KT P6SM SCT050 SCT250
     FM252200 14010G16KT P6SM FEW060 FEW250=



Latest METAR

056
SAUS80 KWBC 251000
MTRJAX
METAR KJAX 250956Z 00000KT 10SM CLR 22/22 A3003 RMK AO2 SLP171
T02170217


USA.gov is the U.S. government's official web portal to all federal, state and local government web resources and services.